Time;durP1;ratioP1;P1;durP2;ratioP2;P2;SDS_P1;SDS_P2;PMS_P1;PMS_P2;Temp;Humidity;BMP_temperature;BMP_pressure;BME280_temperature;BME280_humidity;BME280_pressure;Samples;Min_cycle;Max_cycle;Signal;HPM_P1;HPM_P2
2021/05/01 00:01:55;;;;;;;90.85;46.30;;;7.30;99.90;;;;;;5024054;28;20416;-71
2021/05/01 00:04:21;;;;;;;81.03;46.45;;;7.20;99.90;;;;;;5031127;28;20021;-70
2021/05/01 00:06:46;;;;;;;78.13;45.50;;;7.10;99.90;;;;;;5031412;28;20369;-71
2021/05/01 00:09:12;;;;;;;82.97;45.00;;;7.10;99.90;;;;;;5031270;28;20373;-70
2021/05/01 00:11:38;;;;;;;87.43;47.40;;;7.10;99.90;;;;;;5014276;28;20114;-71
2021/05/01 00:14:05;;;;;;;87.55;47.47;;;7.10;99.90;;;;;;5011314;28;20425;-70
2021/05/01 00:16:31;;;;;;;83.13;46.30;;;7.10;99.90;;;;;;5011947;28;20018;-70
2021/05/01 00:18:58;;;;;;;87.80;47.17;;;7.10;99.90;;;;;;5012516;28;20140;-70
2021/05/01 00:21:24;;;;;;;88.65;47.97;;;7.10;99.90;;;;;;5012879;28;20022;-69
2021/05/01 00:23:50;;;;;;;106.07;53.10;;;7.20;99.90;;;;;;5010956;28;20026;-70
2021/05/01 00:26:15;;;;;;;108.32;52.33;;;7.20;99.90;;;;;;5014064;28;20030;-70
2021/05/01 00:28:41;;;;;;;105.20;50.53;;;7.20;99.90;;;;;;5014911;28;20030;-70
2021/05/01 00:31:07;;;;;;;84.63;45.17;;;7.20;99.90;;;;;;5026239;28;20133;-70
2021/05/01 00:33:33;;;;;;;107.07;51.75;;;7.00;99.90;;;;;;5032553;28;20057;-70
2021/05/01 00:35:59;;;;;;;97.25;50.30;;;7.00;99.90;;;;;;5032026;28;20028;-71
2021/05/01 00:38:25;;;;;;;87.15;45.42;;;7.00;99.90;;;;;;5031139;28;20480;-70
2021/05/01 00:40:51;;;;;;;89.82;47.03;;;6.90;99.90;;;;;;5027929;28;20088;-70
2021/05/01 00:43:16;;;;;;;93.20;47.80;;;6.90;99.90;;;;;;5011232;28;20488;-70
2021/05/01 00:45:42;;;;;;;96.70;50.17;;;6.80;99.90;;;;;;5011844;28;20034;-71
2021/05/01 00:48:08;;;;;;;106.75;50.80;;;6.90;99.90;;;;;;5017984;28;20069;-70
2021/05/01 00:50:34;;;;;;;119.53;54.50;;;7.00;99.90;;;;;;5031771;28;20033;-70
2021/05/01 00:53:00;;;;;;;115.97;54.88;;;7.00;99.90;;;;;;5030935;28;20026;-69
2021/05/01 00:55:26;;;;;;;109.00;52.70;;;7.00;99.90;;;;;;5032133;28;20040;-70
2021/05/01 00:57:51;;;;;;;103.47;50.70;;;7.00;99.90;;;;;;5031259;28;20022;-70
2021/05/01 01:00:42;;;;;;;100.82;49.58;;;6.90;99.90;;;;;;5031248;28;20377;-71
2021/05/01 01:03:03;;;;;;;86.78;45.92;;;6.80;99.90;;;;;;5030647;28;20618;-70
2021/05/01 01:05:29;;;;;;;85.63;45.13;;;6.80;99.90;;;;;;5032638;28;20018;-70
2021/05/01 01:07:55;;;;;;;83.93;44.63;;;6.80;99.90;;;;;;5032356;28;20048;-70
2021/05/01 01:10:21;;;;;;;70.03;39.65;;;6.70;99.90;;;;;;5031434;28;20029;-70
2021/05/01 01:12:47;;;;;;;64.07;38.72;;;6.60;99.90;;;;;;5030381;28;20030;-70
2021/05/01 01:15:27;;;;;;;63.47;39.03;;;6.60;99.90;;;;;;5031266;28;20110;-70
2021/05/01 01:17:53;;;;;;;55.30;36.25;;;6.60;99.90;;;;;;5032305;28;20103;-71
2021/05/01 01:20:19;;;;;;;54.40;34.50;;;6.50;99.90;;;;;;5036611;28;20025;-71
2021/05/01 01:22:45;;;;;;;64.45;38.38;;;6.50;99.90;;;;;;5035442;28;20029;-70
2021/05/01 01:25:12;;;;;;;73.10;40.95;;;6.60;99.90;;;;;;5018269;28;20037;-70
2021/05/01 01:27:38;;;;;;;64.82;39.17;;;6.70;99.90;;;;;;5035864;28;20033;-70
2021/05/01 01:30:08;;;;;;;58.53;36.85;;;6.50;99.90;;;;;;5035695;28;20109;-71
2021/05/01 01:32:34;;;;;;;58.33;36.85;;;6.50;99.90;;;;;;5035635;28;20108;-70
2021/05/01 01:34:59;;;;;;;58.90;36.58;;;6.40;99.90;;;;;;5033707;28;20100;-70
2021/05/01 01:37:25;;;;;;;62.08;36.53;;;6.50;99.90;;;;;;5034531;28;20055;-70
2021/05/01 01:39:51;;;;;;;58.00;37.05;;;6.50;99.90;;;;;;5034474;28;20491;-70
2021/05/01 01:42:16;;;;;;;62.97;38.95;;;6.50;99.90;;;;;;5034364;28;20040;-70
2021/05/01 01:44:42;;;;;;;68.10;40.83;;;6.70;99.90;;;;;;5026713;28;20431;-71
2021/05/01 01:47:08;;;;;;;77.25;43.95;;;6.90;99.90;;;;;;4996963;28;20036;-71
2021/05/01 01:49:35;;;;;;;70.85;40.83;;;7.10;99.90;;;;;;5014663;28;20034;-70
2021/05/01 01:52:01;;;;;;;63.42;39.22;;;6.90;99.90;;;;;;5014597;28;20029;-71
2021/05/01 01:54:26;;;;;;;60.00;37.00;;;6.90;99.90;;;;;;5013894;28;20018;-71
2021/05/01 01:56:52;;;;;;;72.00;39.92;;;7.00;99.90;;;;;;4997234;28;20022;-70
2021/05/01 02:01:51;;;;;;;83.03;43.47;;;7.00;99.90;;;;;;5011049;28;20749;-70
2021/05/01 02:04:16;;;;;;;93.22;46.53;;;7.10;99.90;;;;;;5013649;28;20448;-71
2021/05/01 02:06:44;;;;;;;92.10;44.25;;;7.20;99.90;;;;;;5014181;28;20349;-72
2021/05/01 02:09:10;;;;;;;101.75;47.78;;;7.30;99.90;;;;;;5013957;28;20109;-71
2021/05/01 02:11:35;;;;;;;111.00;49.83;;;7.30;99.90;;;;;;5014413;28;20118;-71
2021/05/01 02:14:03;;;;;;;100.03;46.50;;;7.30;99.90;;;;;;5013485;28;20030;-71
2021/05/01 02:16:28;;;;;;;103.53;48.38;;;7.30;99.90;;;;;;5014187;28;20042;-71
2021/05/01 02:18:54;;;;;;;92.50;45.00;;;7.20;99.90;;;;;;5014121;28;20097;-71
2021/05/01 02:21:20;;;;;;;85.18;42.70;;;7.20;99.90;;;;;;5016396;28;20103;-71
2021/05/01 02:23:45;;;;;;;80.13;42.38;;;7.20;99.90;;;;;;5013872;28;20049;-70
2021/05/01 02:26:11;;;;;;;78.07;41.17;;;7.10;99.90;;;;;;5013798;28;20033;-70
2021/05/01 02:28:36;;;;;;;70.00;39.65;;;7.10;99.90;;;;;;5013073;28;20036;-70
2021/05/01 02:31:02;;;;;;;65.20;38.97;;;7.10;99.90;;;;;;4994988;28;20369;-70
2021/05/01 02:33:29;;;;;;;66.05;38.00;;;7.10;99.90;;;;;;4995056;28;20120;-70
2021/05/01 02:35:55;;;;;;;70.28;39.78;;;7.10;99.90;;;;;;4994937;28;20026;-71
2021/05/01 02:38:20;;;;;;;62.40;36.97;;;7.00;99.90;;;;;;4994134;28;20357;-71
2021/05/01 02:40:46;;;;;;;65.53;37.13;;;7.10;99.90;;;;;;4993448;28;20101;-70
2021/05/01 02:43:12;;;;;;;68.05;37.92;;;7.10;99.90;;;;;;4993537;28;20584;-71
2021/05/01 02:45:38;;;;;;;69.93;38.30;;;7.20;99.90;;;;;;4993278;28;20033;-72
2021/05/01 02:48:04;;;;;;;70.65;37.65;;;7.20;99.90;;;;;;4994051;28;20034;-70
2021/05/01 02:50:30;;;;;;;70.88;39.67;;;7.20;99.90;;;;;;4976095;28;20054;-70
2021/05/01 02:52:56;;;;;;;67.50;37.10;;;7.20;99.90;;;;;;4993190;28;20096;-70
2021/05/01 02:55:22;;;;;;;80.95;41.20;;;7.10;99.90;;;;;;4993621;28;20046;-70
2021/05/01 02:57:52;;;;;;;80.82;42.80;;;7.20;99.90;;;;;;4975723;28;20396;-70
2021/05/01 03:00:20;;;;;;;79.93;41.63;;;7.30;99.90;;;;;;4976019;28;20034;-71
2021/05/01 03:02:46;;;;;;;76.88;41.58;;;7.20;99.90;;;;;;4992952;28;20444;-72
2021/05/01 03:05:14;;;;;;;80.28;43.10;;;7.10;99.90;;;;;;4991007;28;20046;-70
2021/05/01 03:07:40;;;;;;;81.65;43.85;;;7.20;99.90;;;;;;4993574;28;20099;-70
2021/05/01 03:10:14;;;;;;;78.18;42.92;;;7.30;99.90;;;;;;4993271;28;20027;-72
2021/05/01 03:12:41;;;;;;;75.80;42.67;;;7.20;99.90;;;;;;4976046;28;20448;-70
2021/05/01 03:15:08;;;;;;;72.28;41.25;;;7.20;99.90;;;;;;4978059;28;20476;-71
2021/05/01 03:17:33;;;;;;;78.18;43.22;;;7.20;99.90;;;;;;4994968;28;20027;-71
2021/05/01 03:20:00;;;;;;;76.22;42.58;;;7.20;99.90;;;;;;4993681;28;20026;-71
2021/05/01 03:22:25;;;;;;;76.55;43.05;;;7.30;99.90;;;;;;5005808;28;20040;-70
2021/05/01 03:24:53;;;;;;;70.25;39.95;;;7.10;99.90;;;;;;5004963;28;20030;-73
2021/05/01 03:27:18;;;;;;;74.43;43.03;;;7.00;99.90;;;;;;5001787;28;20029;-72
2021/05/01 03:29:44;;;;;;;73.10;42.10;;;7.10;99.90;;;;;;5004222;28;20026;-71
2021/05/01 03:32:10;;;;;;;74.38;43.92;;;7.20;99.90;;;;;;5011069;28;20082;-72
2021/05/01 03:34:35;;;;;;;73.35;42.03;;;7.20;99.90;;;;;;5008405;28;20030;-71
2021/05/01 03:37:01;;;;;;;70.28;42.30;;;7.20;99.90;;;;;;4997911;28;20022;-71
2021/05/01 03:39:26;;;;;;;68.43;40.35;;;7.20;99.90;;;;;;4993525;28;20054;-71
2021/05/01 03:41:52;;;;;;;62.53;37.22;;;7.10;99.90;;;;;;4992443;28;20094;-70
2021/05/01 03:44:18;;;;;;;64.90;38.55;;;7.10;99.90;;;;;;4992293;28;20100;-72
2021/05/01 03:46:43;;;;;;;65.40;38.78;;;7.10;99.90;;;;;;4992996;28;20022;-70
2021/05/01 03:49:09;;;;;;;68.10;40.75;;;7.20;99.90;;;;;;4992383;28;20523;-70
2021/05/01 03:51:34;;;;;;;76.72;40.58;;;7.30;99.90;;;;;;4992684;28;20052;-70
2021/05/01 03:54:00;;;;;;;68.03;40.22;;;7.30;99.90;;;;;;4992566;28;20023;-71
2021/05/01 03:56:27;;;;;;;69.18;40.22;;;7.30;99.90;;;;;;4993291;28;20034;-71
2021/05/01 03:58:52;;;;;;;77.43;44.33;;;7.30;99.90;;;;;;4994037;28;20029;-71
2021/05/01 04:01:18;;;;;;;76.82;43.50;;;7.30;99.90;;;;;;4975060;28;20412;-70
2021/05/01 04:03:44;;;;;;;66.93;39.80;;;7.50;99.90;;;;;;4992015;28;20473;-71
2021/05/01 04:06:09;;;;;;;77.53;42.33;;;7.40;99.90;;;;;;4975009;28;20516;-72
2021/05/01 04:08:37;;;;;;;66.28;39.10;;;7.50;99.90;;;;;;4992919;28;20646;-71
2021/05/01 04:11:03;;;;;;;64.45;37.72;;;7.40;99.90;;;;;;4992194;28;20543;-71
2021/05/01 04:13:29;;;;;;;75.25;41.65;;;7.30;99.90;;;;;;4991749;28;20030;-71
2021/05/01 04:15:55;;;;;;;70.50;41.20;;;7.50;99.90;;;;;;4992499;28;20084;-71
2021/05/01 04:18:21;;;;;;;71.57;40.83;;;7.60;99.90;;;;;;4992674;28;20034;-71
2021/05/01 04:20:47;;;;;;;63.33;37.10;;;7.50;99.90;;;;;;4992493;28;20018;-71
2021/05/01 04:23:12;;;;;;;61.05;36.10;;;7.40;99.90;;;;;;4991827;28;20097;-70
2021/05/01 04:25:39;;;;;;;52.85;34.78;;;7.40;99.90;;;;;;4997785;28;20076;-71
2021/05/01 04:28:05;;;;;;;55.85;36.40;;;7.30;99.90;;;;;;4983009;28;20022;-69
2021/05/01 04:30:32;;;;;;;72.45;40.80;;;7.40;99.90;;;;;;4992762;28;20030;-69
2021/05/01 04:32:58;;;;;;;69.57;39.70;;;7.50;99.90;;;;;;4990835;28;20034;-71
2021/05/01 04:35:23;;;;;;;69.47;39.25;;;7.60;99.90;;;;;;4974795;28;20041;-71
2021/05/01 04:37:49;;;;;;;66.60;39.65;;;7.60;99.90;;;;;;4992050;28;20033;-70
2021/05/01 04:40:15;;;;;;;69.90;39.80;;;7.60;99.90;;;;;;4991922;28;20029;-70
2021/05/01 04:42:48;;;;;;;59.88;36.70;;;7.60;99.90;;;;;;4990692;28;20034;-70
2021/05/01 04:45:15;;;;;;;64.63;37.55;;;7.60;99.90;;;;;;4991549;28;20026;-71
2021/05/01 04:47:41;;;;;;;63.83;37.75;;;7.60;99.90;;;;;;4974633;28;20034;-70
2021/05/01 04:50:07;;;;;;;62.90;36.85;;;7.70;99.90;;;;;;4992120;28;20089;-71
2021/05/01 04:52:33;;;;;;;62.30;38.03;;;7.60;99.90;;;;;;4994417;28;20389;-70
2021/05/01 04:55:03;;;;;;;65.22;38.15;;;7.70;99.90;;;;;;4977914;28;20033;-71
2021/05/01 04:57:29;;;;;;;52.67;32.60;;;7.70;99.90;;;;;;4995646;28;20018;-70
2021/05/01 04:59:54;;;;;;;57.42;36.30;;;7.60;99.90;;;;;;4978331;28;20022;-71
2021/05/01 05:02:20;;;;;;;54.30;34.45;;;7.60;99.90;;;;;;4995946;28;20500;-70
2021/05/01 05:04:45;;;;;;;60.90;35.03;;;7.60;99.90;;;;;;4995188;28;20035;-72
2021/05/01 05:07:11;;;;;;;53.38;33.85;;;7.50;99.90;;;;;;4995805;28;20132;-71
2021/05/01 05:09:37;;;;;;;49.30;31.80;;;7.60;99.90;;;;;;4987703;28;20048;-71
2021/05/01 05:12:02;;;;;;;46.80;29.83;;;7.50;99.90;;;;;;5004274;28;20366;-71
2021/05/01 05:14:28;;;;;;;47.70;30.15;;;7.50;99.90;;;;;;5007182;28;20471;-70
2021/05/01 05:16:54;;;;;;;45.22;30.15;;;7.50;99.90;;;;;;4995624;28;20448;-72
2021/05/01 05:19:19;;;;;;;45.58;31.73;;;7.50;99.90;;;;;;4994354;28;20517;-70
2021/05/01 05:21:45;;;;;;;46.20;29.77;;;7.60;99.90;;;;;;4993546;28;20030;-70
2021/05/01 05:24:11;;;;;;;46.92;31.55;;;7.60;99.90;;;;;;4994664;28;20034;-72
2021/05/01 05:26:38;;;;;;;44.17;30.85;;;7.50;99.90;;;;;;5003273;28;20021;-70
2021/05/01 05:29:04;;;;;;;42.13;28.48;;;7.40;99.90;;;;;;5012647;28;20534;-69
2021/05/01 05:31:30;;;;;;;40.33;28.92;;;7.40;99.90;;;;;;4995430;28;20121;-70
2021/05/01 05:33:55;;;;;;;39.63;27.73;;;7.50;99.90;;;;;;5012333;28;20026;-69
2021/05/01 05:36:21;;;;;;;40.00;28.80;;;7.50;99.90;;;;;;5012785;28;20030;-70
2021/05/01 05:38:46;;;;;;;37.35;27.08;;;7.50;99.90;;;;;;5012356;28;20029;-70
2021/05/01 05:41:12;;;;;;;32.92;24.30;;;7.50;99.90;;;;;;4995418;28;20022;-69
2021/05/01 05:43:38;;;;;;;33.40;25.25;;;7.60;99.90;;;;;;4994553;28;20053;-69
2021/05/01 05:46:13;;;;;;;31.05;23.05;;;7.60;99.90;;;;;;4992835;28;20101;-70
2021/05/01 05:48:40;;;;;;;30.42;23.35;;;7.40;99.90;;;;;;4992946;28;20026;-70
2021/05/01 05:51:06;;;;;;;31.98;22.98;;;7.60;99.90;;;;;;4993794;28;20097;-69
2021/05/01 05:53:33;;;;;;;32.08;23.45;;;7.70;99.90;;;;;;4975623;28;20027;-69
2021/05/01 05:55:58;;;;;;;29.85;22.88;;;7.90;99.90;;;;;;4975797;28;20028;-70
2021/05/01 05:58:25;;;;;;;29.77;22.90;;;7.80;99.90;;;;;;4976223;28;20034;-71
2021/05/01 06:00:50;;;;;;;30.92;22.38;;;7.60;99.90;;;;;;4998835;28;20488;-70
2021/05/01 06:03:18;;;;;;;30.08;22.73;;;7.60;99.90;;;;;;5012116;28;20065;-70
2021/05/01 06:05:48;;;;;;;32.67;23.73;;;7.50;99.90;;;;;;4995738;28;20049;-70
2021/05/01 06:08:16;;;;;;;33.42;23.88;;;7.50;99.90;;;;;;5013863;28;20166;-71
2021/05/01 06:10:43;;;;;;;35.08;26.13;;;7.60;99.90;;;;;;5000891;28;20034;-71
2021/05/01 06:13:11;;;;;;;31.45;23.83;;;7.80;99.90;;;;;;5006406;28;20030;-72
2021/05/01 06:15:37;;;;;;;31.60;23.95;;;7.90;99.90;;;;;;4989907;28;20097;-71
2021/05/01 06:18:04;;;;;;;29.85;22.00;;;8.00;99.90;;;;;;5004521;28;20022;-70
2021/05/01 06:20:32;;;;;;;29.08;22.23;;;8.10;99.90;;;;;;5004928;28;20110;-71
2021/05/01 06:23:03;;;;;;;29.50;23.75;;;7.80;99.90;;;;;;5005210;28;20041;-72
2021/05/01 06:25:29;;;;;;;33.40;23.80;;;7.80;99.90;;;;;;4997580;28;20061;-69
2021/05/01 06:27:55;;;;;;;32.38;24.45;;;8.00;99.90;;;;;;4994726;28;20822;-71
2021/05/01 06:30:22;;;;;;;33.85;24.30;;;8.00;99.90;;;;;;4976252;28;20217;-72
2021/05/01 06:32:49;;;;;;;34.45;26.25;;;8.10;99.90;;;;;;4992858;28;20031;-70
2021/05/01 06:35:15;;;;;;;32.20;23.45;;;8.20;99.90;;;;;;4993621;28;20165;-70
2021/05/01 06:37:41;;;;;;;33.83;26.25;;;8.20;99.90;;;;;;4993311;28;20090;-70
2021/05/01 06:40:12;;;;;;;33.75;25.48;;;8.10;99.90;;;;;;4992525;28;20396;-72
2021/05/01 06:42:43;;;;;;;34.85;26.23;;;8.10;99.90;;;;;;4994516;28;20489;-70
2021/05/01 06:45:09;;;;;;;33.30;25.13;;;8.10;99.90;;;;;;4993672;28;20022;-71
2021/05/01 06:47:41;;;;;;;25.75;19.70;;;8.30;99.90;;;;;;4992904;28;20088;-70
2021/05/01 06:50:12;;;;;;;28.88;21.13;;;8.40;99.90;;;;;;4993645;28;20041;-72
2021/05/01 06:52:47;;;;;;;29.23;22.35;;;8.60;99.90;;;;;;4993754;28;20026;-72
2021/05/01 06:55:15;;;;;;;27.95;20.98;;;8.80;99.90;;;;;;4992533;28;20045;-71
2021/05/01 06:57:50;;;;;;;25.13;19.83;;;8.80;99.90;;;;;;4993473;28;20380;-72
2021/05/01 07:00:18;;;;;;;25.77;20.38;;;8.70;99.90;;;;;;4993238;28;20026;-72
2021/05/01 07:02:49;;;;;;;24.17;19.40;;;8.80;99.90;;;;;;5010824;28;20026;-71
2021/05/01 07:05:20;;;;;;;27.90;21.30;;;8.80;99.90;;;;;;5012598;28;20038;-72
2021/05/01 07:07:46;;;;;;;27.40;22.00;;;9.00;99.90;;;;;;4995506;28;20038;-71
2021/05/01 07:10:13;;;;;;;26.33;20.02;;;9.00;99.90;;;;;;4996604;28;20042;-71
2021/05/01 07:12:39;;;;;;;26.15;20.50;;;9.00;99.90;;;;;;4992755;28;20030;-72
2021/05/01 07:15:10;;;;;;;28.30;21.23;;;9.00;99.90;;;;;;4974270;28;20408;-72
2021/05/01 07:17:38;;;;;;;28.55;21.38;;;9.00;99.90;;;;;;4974878;28;20033;-72
2021/05/01 07:20:06;;;;;;;25.48;20.10;;;9.10;99.90;;;;;;4992514;28;20033;-71
2021/05/01 07:22:32;;;;;;;25.33;19.48;;;8.80;99.90;;;;;;4975417;28;20474;-71
2021/05/01 07:25:00;;;;;;;26.50;20.23;;;8.80;99.90;;;;;;4992587;28;20032;-71
2021/05/01 07:27:35;;;;;;;24.30;19.75;;;8.80;99.90;;;;;;4992186;28;20058;-70
2021/05/01 07:30:03;;;;;;;27.33;20.15;;;8.70;99.90;;;;;;4993385;28;20730;-71
2021/05/01 07:32:35;;;;;;;23.48;19.08;;;8.90;99.90;;;;;;4992013;28;20031;-71
2021/05/01 07:35:07;;;;;;;25.08;20.50;;;8.90;99.90;;;;;;4992480;28;20045;-71
2021/05/01 07:37:36;;;;;;;24.08;18.63;;;8.60;99.90;;;;;;4992087;28;20073;-71
2021/05/01 07:40:05;;;;;;;25.27;19.40;;;8.70;99.90;;;;;;4992104;28;20021;-71
2021/05/01 07:42:38;;;;;;;26.55;20.55;;;8.80;99.90;;;;;;4992799;28;20022;-73
2021/05/01 07:45:04;;;;;;;26.50;21.58;;;8.60;99.90;;;;;;4992699;28;20058;-71
2021/05/01 07:47:31;;;;;;;28.55;20.33;;;8.80;99.90;;;;;;4992724;28;20085;-70
2021/05/01 07:49:58;;;;;;;27.45;20.77;;;8.70;99.90;;;;;;4995159;28;20030;-70
2021/05/01 07:52:24;;;;;;;19.98;16.17;;;9.30;99.90;;;;;;5005368;28;20049;-70
2021/05/01 07:54:50;;;;;;;23.20;17.80;;;9.60;99.90;;;;;;5005444;28;20146;-69
2021/05/01 07:57:16;;;;;;;24.20;18.42;;;10.60;99.90;;;;;;4995945;28;20027;-69
2021/05/01 07:59:42;;;;;;;21.60;18.23;;;10.40;99.90;;;;;;4980625;28;20492;-70
2021/05/01 08:02:08;;;;;;;23.77;19.25;;;10.00;99.90;;;;;;4996886;28;20069;-70
2021/05/01 08:04:34;;;;;;;23.55;19.00;;;9.80;99.90;;;;;;5001744;28;20058;-71
2021/05/01 08:07:00;;;;;;;24.33;20.33;;;9.90;99.90;;;;;;5003776;28;20054;-70
2021/05/01 08:09:26;;;;;;;24.20;20.23;;;9.50;99.90;;;;;;5004456;28;20785;-69
2021/05/01 08:11:51;;;;;;;25.23;20.27;;;9.60;99.90;;;;;;5001661;28;20026;-70
2021/05/01 08:14:17;;;;;;;26.45;18.48;;;9.80;99.90;;;;;;5001109;28;20026;-69
2021/05/01 08:16:43;;;;;;;24.65;20.23;;;9.40;99.90;;;;;;4977702;28;20041;-70
2021/05/01 08:19:08;;;;;;;26.58;21.23;;;9.00;99.90;;;;;;5004811;28;20022;-69
2021/05/01 08:21:36;;;;;;;26.38;20.77;;;8.90;99.90;;;;;;5002523;28;20037;-70
2021/05/01 08:24:03;;;;;;;28.45;21.27;;;8.70;99.90;;;;;;4996808;28;20022;-70
2021/05/01 08:26:28;;;;;;;28.80;21.70;;;8.50;99.90;;;;;;5006438;28;20029;-71
2021/05/01 08:28:54;;;;;;;36.90;24.25;;;8.80;99.90;;;;;;4997963;28;20435;-70
2021/05/01 08:31:20;;;;;;;36.70;24.80;;;9.10;99.90;;;;;;5002372;28;20060;-69
2021/05/01 08:33:46;;;;;;;29.45;21.13;;;9.20;99.90;;;;;;4997085;28;20069;-69
2021/05/01 08:36:12;;;;;;;30.10;22.73;;;9.10;99.90;;;;;;4998346;28;20464;-71
2021/05/01 08:38:37;;;;;;;27.77;21.38;;;9.00;99.90;;;;;;4999061;28;20097;-71
2021/05/01 08:41:05;;;;;;;32.17;23.23;;;8.90;99.90;;;;;;4982907;28;20014;-71
2021/05/01 08:43:32;;;;;;;32.08;22.55;;;8.80;99.90;;;;;;4995822;28;20033;-72
2021/05/01 08:45:59;;;;;;;31.08;23.52;;;8.80;99.90;;;;;;4999415;28;20026;-72
2021/05/01 08:48:27;;;;;;;43.65;30.88;;;9.10;99.90;;;;;;4986773;28;20026;-71
2021/05/01 08:51:02;;;;;;;28.50;20.88;;;9.40;99.90;;;;;;5001775;28;20026;-71
2021/05/01 08:53:29;;;;;;;33.33;21.40;;;9.30;99.90;;;;;;5005651;28;20033;-72
2021/05/01 08:55:55;;;;;;;30.88;22.50;;;9.40;99.90;;;;;;4980532;28;20121;-71
2021/05/01 08:58:21;;;;;;;26.95;21.05;;;9.70;99.90;;;;;;4994891;28;20105;-72
2021/05/01 09:00:48;;;;;;;27.83;21.25;;;9.80;99.90;;;;;;4998712;28;20029;-73
2021/05/01 09:03:18;;;;;;;24.73;20.25;;;10.00;99.90;;;;;;5003313;28;20026;-73
2021/05/01 09:05:45;;;;;;;29.65;21.05;;;10.10;99.90;;;;;;4997391;28;20054;-72
2021/05/01 09:08:13;;;;;;;24.95;19.95;;;10.20;99.90;;;;;;4993541;28;20108;-72
2021/05/01 09:10:51;;;;;;;28.73;20.75;;;10.00;99.90;;;;;;4997416;28;20098;-69
2021/05/01 09:13:25;;;;;;;25.27;19.45;;;10.10;99.90;;;;;;5008244;28;20550;-72
2021/05/01 09:16:09;;;;;;;24.55;19.98;;;9.70;99.90;;;;;;4987784;28;20105;-71
2021/05/01 09:18:55;;;;;;;25.20;19.95;;;9.90;99.90;;;;;;4979966;28;20145;-71
2021/05/01 09:21:22;;;;;;;26.33;20.48;;;9.60;99.90;;;;;;4989025;28;20026;-70
2021/05/01 09:23:49;;;;;;;23.80;18.25;;;9.60;99.90;;;;;;4997197;28;20026;-70
2021/05/01 09:26:18;;;;;;;26.90;21.05;;;9.70;99.90;;;;;;5002145;28;20384;-69
2021/05/01 09:28:49;;;;;;;28.05;20.10;;;9.70;99.90;;;;;;4996609;28;20049;-70
2021/05/01 09:31:17;;;;;;;27.00;20.70;;;9.90;99.90;;;;;;4995048;28;20584;-71
2021/05/01 09:33:47;;;;;;;24.50;18.80;;;10.20;99.90;;;;;;5003643;28;20157;-69
2021/05/01 09:36:18;;;;;;;29.38;20.95;;;10.40;99.90;;;;;;4999206;28;20025;-68
2021/05/01 09:38:46;;;;;;;27.48;21.25;;;9.90;99.90;;;;;;5003828;28;20022;-69
2021/05/01 09:41:17;;;;;;;29.95;21.30;;;10.10;99.90;;;;;;4997790;28;20034;-69
2021/05/01 09:44:04;;;;;;;26.80;20.90;;;10.10;99.90;;;;;;4996575;28;20022;-68
2021/05/01 09:46:38;;;;;;;26.50;21.23;;;10.00;99.90;;;;;;5003527;28;20022;-68
2021/05/01 09:49:20;;;;;;;30.25;20.77;;;9.80;99.90;;;;;;4996558;28;20602;-68
2021/05/01 09:51:57;;;;;;;26.27;19.92;;;10.00;99.90;;;;;;5004464;28;20026;-68
2021/05/01 09:54:35;;;;;;;25.77;20.58;;;11.10;99.90;;;;;;5001142;28;20065;-68
2021/05/01 09:57:09;;;;;;;33.75;23.83;;;10.90;99.90;;;;;;4992673;28;20850;-69
2021/05/01 09:59:41;;;;;;;30.38;22.02;;;11.00;99.90;;;;;;4990653;28;20022;-68
2021/05/01 10:02:12;;;;;;;31.27;22.63;;;11.00;99.90;;;;;;4999044;28;20049;-69
2021/05/01 10:04:39;;;;;;;28.45;22.23;;;11.10;99.90;;;;;;5000488;28;20084;-68
2021/05/01 10:07:07;;;;;;;28.42;21.23;;;11.30;99.90;;;;;;4999312;28;20026;-68
2021/05/01 10:09:35;;;;;;;28.00;20.17;;;11.30;99.90;;;;;;5001476;28;20030;-68
2021/05/01 10:12:08;;;;;;;30.45;21.40;;;11.30;99.90;;;;;;4993323;28;20460;-69
2021/05/01 10:14:36;;;;;;;31.33;24.23;;;11.20;99.90;;;;;;4991335;28;20109;-68
2021/05/01 10:17:04;;;;;;;30.52;21.70;;;11.40;99.90;;;;;;4995789;28;20025;-68
2021/05/01 10:19:49;;;;;;;34.17;25.38;;;11.40;99.90;;;;;;4992085;28;20030;-68
2021/05/01 10:22:42;;;;;;;31.27;24.15;;;11.20;99.90;;;;;;4991722;28;20513;-68
2021/05/01 10:25:09;;;;;;;;;;;11.30;99.90;;;;;;4992531;28;20030;-68
2021/05/01 10:27:52;;;;;;;35.10;26.15;;;12.20;99.90;;;;;;4991915;28;20005;-68
2021/05/01 10:33:36;;;;;;;36.15;27.55;;;11.50;99.90;;;;;;4973247;28;20034;-69
2021/05/01 10:36:23;;;;;;;31.17;24.98;;;10.60;99.90;;;;;;4991000;28;20019;-69
2021/05/01 10:39:09;;;;;;;34.17;26.67;;;10.40;99.90;;;;;;4991172;28;20030;-68
2021/05/01 10:41:36;;;;;;;37.42;27.90;;;10.30;99.90;;;;;;4991098;28;20014;-68
2021/05/01 10:44:05;;;;;;;35.97;27.35;;;10.60;99.90;;;;;;4990184;28;20400;-68
2021/05/01 10:46:33;;;;;;;33.17;25.75;;;10.80;99.90;;;;;;4990947;28;20027;-68
2021/05/01 10:49:04;;;;;;;39.53;27.65;;;10.60;99.90;;;;;;4990531;28;20026;-68
2021/05/01 10:51:36;;;;;;;34.60;26.40;;;10.90;99.90;;;;;;4991121;28;20109;-68
2021/05/01 10:54:15;;;;;;;34.70;26.25;;;11.00;99.90;;;;;;4989884;28;20064;-68
2021/05/01 10:56:53;;;;;;;36.05;27.77;;;10.60;99.90;;;;;;4991064;28;20019;-69
2021/05/01 10:59:26;;;;;;;38.78;27.50;;;10.90;99.90;;;;;;4992327;28;20026;-68
2021/05/01 11:01:54;;;;;;;35.30;25.48;;;10.90;99.90;;;;;;4993933;28;20046;-69
2021/05/01 11:04:31;;;;;;;36.15;27.05;;;10.90;99.90;;;;;;4990538;28;20026;-68
2021/05/01 11:07:06;;;;;;;35.67;27.10;;;11.00;99.90;;;;;;4990228;28;20022;-69
2021/05/01 11:09:43;;;;;;;30.30;23.88;;;10.90;99.90;;;;;;4992124;28;20038;-69
2021/05/01 11:12:21;;;;;;;36.90;25.92;;;11.00;99.90;;;;;;4982540;28;20037;-69
2021/05/01 11:14:48;;;;;;;32.97;24.98;;;10.70;99.90;;;;;;4987955;28;20030;-68
2021/05/01 11:17:32;;;;;;;31.08;23.67;;;10.50;99.90;;;;;;5005469;28;20022;-69
2021/05/01 11:20:06;;;;;;;30.88;23.33;;;10.10;99.90;;;;;;5011098;28;20022;-70
2021/05/01 11:22:34;;;;;;;33.20;23.63;;;10.10;99.90;;;;;;5006429;28;20026;-72
2021/05/01 11:25:13;;;;;;;35.05;23.33;;;10.20;99.90;;;;;;5005734;28;20030;-71
2021/05/01 11:27:41;;;;;;;29.65;21.88;;;10.20;99.90;;;;;;4992197;28;20030;-70
2021/05/01 11:30:09;;;;;;;29.95;22.30;;;10.60;99.90;;;;;;4994612;28;20110;-68
2021/05/01 11:32:39;;;;;;;28.13;22.50;;;10.70;99.90;;;;;;4994675;28;20092;-70
2021/05/01 11:35:07;;;;;;;24.65;19.92;;;10.70;99.90;;;;;;4990637;28;20018;-69
2021/05/01 11:37:39;;;;;;;26.73;20.95;;;10.50;99.90;;;;;;4993331;28;20362;-70
2021/05/01 11:40:06;;;;;;;27.15;21.08;;;10.80;99.90;;;;;;4996194;28;20025;-69
2021/05/01 11:42:32;;;;;;;26.23;21.38;;;10.80;99.90;;;;;;4990331;28;20077;-69
2021/05/01 11:44:58;;;;;;;26.15;20.35;;;11.00;99.90;;;;;;4990216;28;20022;-72
2021/05/01 11:47:28;;;;;;;29.50;22.50;;;11.20;99.90;;;;;;4991243;28;20630;-70
2021/05/01 11:49:56;;;;;;;26.70;20.58;;;11.60;99.90;;;;;;4991444;28;20030;-71
2021/05/01 11:52:56;;;;;;;21.33;17.63;;;11.90;99.90;;;;;;4991174;28;20436;-70
2021/05/01 11:55:27;;;;;;;24.20;18.35;;;11.70;99.90;;;;;;4989555;28;20110;-69
2021/05/01 11:57:58;;;;;;;22.27;17.90;;;11.40;99.90;;;;;;4989763;28;20459;-70
2021/05/01 12:00:27;;;;;;;21.80;17.67;;;11.30;99.90;;;;;;4989587;28;20392;-69
2021/05/01 12:02:54;;;;;;;24.55;18.55;;;11.30;99.90;;;;;;4972186;28;20080;-69
2021/05/01 12:05:24;;;;;;;22.27;17.58;;;11.90;99.90;;;;;;4990007;28;20028;-68
2021/05/01 12:08:10;;;;;;;18.75;16.27;;;11.70;99.90;;;;;;4994881;28;20029;-68
2021/05/01 12:11:03;;;;;;;19.05;16.02;;;11.60;99.90;;;;;;4989619;28;20685;-69
2021/05/01 12:13:35;;;;;;;19.77;16.13;;;12.10;99.90;;;;;;4985042;28;20060;-69
2021/05/01 12:16:05;;;;;;;18.77;15.52;;;12.40;99.90;;;;;;4989066;28;20022;-69
2021/05/01 12:18:47;;;;;;;18.35;15.38;;;12.90;99.90;;;;;;4971203;28;20030;-70
2021/05/01 12:21:25;;;;;;;20.95;16.55;;;12.50;99.90;;;;;;4989362;28;20392;-69
2021/05/01 12:23:59;;;;;;;22.52;15.70;;;12.40;99.90;;;;;;4988712;28;20038;-69
2021/05/01 12:26:36;;;;;;;18.13;15.45;;;12.20;99.90;;;;;;4989347;28;20072;-69
2021/05/01 12:29:24;;;;;;;16.38;14.15;;;12.10;99.90;;;;;;4988726;28;20081;-69
2021/05/01 12:32:02;;;;;;;17.95;14.18;;;11.80;99.90;;;;;;4996794;28;20798;-69
2021/05/01 12:34:46;;;;;;;16.60;13.63;;;11.80;99.90;;;;;;4981921;28;20025;-70
2021/05/01 12:37:13;;;;;;;19.83;16.50;;;11.70;99.90;;;;;;4996403;28;20048;-69
2021/05/01 12:39:39;;;;;;;22.85;19.27;;;11.90;99.90;;;;;;4980551;28;20476;-69
2021/05/01 12:42:26;;;;;;;26.98;20.40;;;11.90;99.90;;;;;;4999333;28;20034;-71
2021/05/01 12:44:53;;;;;;;27.30;20.80;;;12.00;99.90;;;;;;4999533;28;20080;-70
2021/05/01 12:47:37;;;;;;;25.42;19.83;;;12.00;99.90;;;;;;4997876;28;20096;-70